首页
METAR-TAF:

METAR-TAF

机场 :

龍目國際機場

Mataram, 印度尼西亚

纬度: 08-45-29S, 经度: 116-16-35E, 海拔: 97米

当前天气观测

该预报发布于39分钟前的23:00 UTC
静风
温度 25°C
湿度 100%
气压 1013 hPa
能見度: 7000
多云层高于1600英尺

METAR: WADL 302300Z 00000KT 7000 BKN016 25/25 Q1013 NOSIG

时间: 06:39 (23:39 UTC)

预报

该预报发布于6小时和39分钟前的17:00 UTC
预报有效从30日的 18点(UTC)到 31日的 18点(UTC)
风速节,风向
能見度: 7000
散云层高于1600英尺
成为
从 31日的 00点(UTC)到 31日的 02点(UTC)
风速10节,风向
短暂存在
从 31日的 06点(UTC)到 31日的 08点(UTC)
能見度: 3000
少量云层高于1500英尺, 积雨云.
多云层高于1600英尺
雷暴, 雨

TAF: WADL 301700Z 3018/3118 00000KT 7000 SCT016 BECMG 3100/3102 09010KT TEMPO 3106/3108 3000 TSRA FEW015CB BKN016

超过4000个机场的气象观测和天气预报(METAR&TAF报告)。

可查询的气象台以黄色和红色小点在地图上表示。

将鼠标移到小点上方,可查看气象台名称。

然后点击查看天气观测和预报。

如需切换地图:点击带黑十字的绿色按钮放大地图;点击带横线的绿色按钮缩小地图;或者点击绿色箭头查看邻近地区的地图。


METAR-TAF: